»·PEaware :: CFOOD CYXE-CJS4

CFOOD :: CYXE-CJS4

FLIGHT INFORMATION

Flight Status: Arrived
Operator: Unknown
More flights by this operator :: More flights under this callsign
Pilot: Vincent M. (370)
Aircraft: Diamond DA-62
(DA62)
More flights by this aircraft type
Origin: CYXE Saskatoon/Diefenbaker Intl
Canada
Destination: CJS4 Moose Jaw Mun
Canada
More flights between these airports :: More routes between these airports
Route:
File this flight plan on PilotEdge
Remarks: KOSH LEG #2
Altitude:
(Current/Filed)
3,000ft
Speed:
(Current/Filed)
180kts
Departed: 20-Jul-20 03:33 PM
Arrived: 20-Jul-20 04:20 PM
Distance/Time
Traveled:
115nm/0:47
Distance/Time
To Go:
Arrived

Flight Plot

Page will automatically refresh every two minutes.

Flight plan parsing failed; only flown route is shown


Map Options




Map Legend


Flown Route
Filed Route
Departure Airport
Arrival Airport
Navaid (VOR, NDB)
Fix

Horizontal Profiles

Position Reports

Time Latitude Longitude Heading Altitude Ground
Speed
20-Jul-20 15:23 52.169417 -106.676217 24 1655ft 0kts
20-Jul-20 15:24 52.169417 -106.676217 24 1655ft 0kts
20-Jul-20 15:25 52.169417 -106.676217 24 1655ft 0kts
20-Jul-20 15:26 52.169417 -106.676217 24 1655ft 0kts
20-Jul-20 15:27 52.169626 -106.676202 346 1655ft 8kts
20-Jul-20 15:28 52.171401 -106.685786 279 1655ft 29kts
20-Jul-20 15:29 52.171630 -106.696090 159 1655ft 22kts
20-Jul-20 15:31 52.164770 -106.694568 220 1655ft 25kts
20-Jul-20 15:32 52.164057 -106.695564 236 1655ft 0kts
20-Jul-20 15:33 52.178787 -106.705560 343 1870ft 102kts
20-Jul-20 15:34 52.181972 -106.749739 213 2625ft 134kts
20-Jul-20 15:35 52.140124 -106.753686 164 2990ft 162kts
20-Jul-20 15:36 52.110401 -106.696156 124 3001ft 170kts
20-Jul-20 15:37 52.083132 -106.632484 125 3000ft 172kts
20-Jul-20 15:38 52.046099 -106.584137 150 3001ft 172kts
20-Jul-20 15:39 52.003668 -106.549256 155 3064ft 168kts
20-Jul-20 15:40 51.961668 -106.516767 155 3465ft 166kts
20-Jul-20 15:41 51.917907 -106.483301 155 3474ft 179kts
20-Jul-20 15:42 51.872515 -106.448400 154 3472ft 181kts
20-Jul-20 15:43 51.827099 -106.413478 155 3470ft 178kts
20-Jul-20 15:44 51.783161 -106.380002 155 3472ft 172kts
20-Jul-20 15:45 51.739814 -106.347096 156 3472ft 172kts
20-Jul-20 15:45 51.703763 -106.319783 156 3471ft 172kts
20-Jul-20 15:47 51.653264 -106.281598 156 3471ft 172kts
20-Jul-20 15:48 51.611056 -106.249795 155 3489ft 170kts
20-Jul-20 15:48 51.575768 -106.223195 155 3489ft 170kts
20-Jul-20 15:50 51.525954 -106.185756 155 3489ft 170kts
20-Jul-20 15:51 51.483149 -106.153664 155 3489ft 170kts
20-Jul-20 15:51 51.447514 -106.126998 155 3489ft 170kts
20-Jul-20 15:52 51.404657 -106.094990 155 3489ft 170kts
20-Jul-20 15:53 51.361828 -106.063068 155 3489ft 170kts
20-Jul-20 15:54 51.318971 -106.031192 155 3489ft 170kts
20-Jul-20 15:55 51.276141 -105.999402 155 3490ft 170kts
20-Jul-20 15:56 51.233871 -105.968083 155 3490ft 170kts
20-Jul-20 15:57 51.190786 -105.936235 155 3491ft 171kts
20-Jul-20 15:58 51.147512 -105.904325 155 3490ft 171kts
20-Jul-20 15:59 51.104333 -105.872534 155 3490ft 171kts
20-Jul-20 16:00 51.060958 -105.840670 155 3490ft 171kts
20-Jul-20 16:01 51.018098 -105.809210 155 3544ft 169kts
20-Jul-20 16:02 50.975072 -105.777733 156 3544ft 170kts
20-Jul-20 16:03 50.932669 -105.746782 157 3543ft 169kts
20-Jul-20 16:04 50.890201 -105.715858 157 3543ft 167kts
20-Jul-20 16:05 50.847889 -105.685027 157 3545ft 167kts
20-Jul-20 16:06 50.805597 -105.654327 157 3544ft 167kts
20-Jul-20 16:07 50.763325 -105.623712 157 3544ft 167kts
20-Jul-20 16:08 50.721117 -105.593188 157 3541ft 167kts
20-Jul-20 16:09 50.678955 -105.561963 154 3544ft 168kts
20-Jul-20 16:10 50.638419 -105.528045 153 2954ft 150kts
20-Jul-20 16:11 50.603256 -105.498245 153 2944ft 142kts
20-Jul-20 16:12 50.568403 -105.468754 153 2943ft 142kts
20-Jul-20 16:13 50.533456 -105.439178 153 2944ft 142kts
20-Jul-20 16:14 50.498545 -105.409752 153 2936ft 143kts
20-Jul-20 16:15 50.464834 -105.376986 138 2936ft 144kts
20-Jul-20 16:16 50.439180 -105.344746 143 2690ft 110kts
20-Jul-20 16:17 50.415995 -105.349579 240 2275ft 89kts
20-Jul-20 16:18 50.429924 -105.380192 313 1942ft 90kts
20-Jul-20 16:19 50.435841 -105.389518 134 1899ft 35kts
20-Jul-20 16:20 50.433831 -105.389332 235 1899ft 11kts
20-Jul-20 16:21 50.433919 -105.389498 32 1899ft 0kts
20-Jul-20 16:22 50.433919 -105.389498 32 1899ft 0kts
20-Jul-20 16:23 50.433919 -105.389498 32 1899ft 0kts
20-Jul-20 16:24 50.433919 -105.389498 32 1899ft 0kts
20-Jul-20 16:25 50.433919 -105.389498 32 1899ft 0kts

Navigation Log

Ident Type
Flight plan parsing failed, navigation log unavailable